sensor_id;sensor_type;location;lat;lon;timestamp;P1;durP1;ratioP1;P2;durP2;ratioP2
26474;SDS011;14161;52.270;10.334;2023-07-08T00:01:17;2.83;;;2.00;;
26474;SDS011;14161;52.270;10.334;2023-07-08T00:03:44;3.10;;;1.83;;
26474;SDS011;14161;52.270;10.334;2023-07-08T00:06:24;2.45;;;2.10;;
26474;SDS011;14161;52.270;10.334;2023-07-08T00:08:51;2.25;;;2.05;;
26474;SDS011;14161;52.270;10.334;2023-07-08T00:11:17;2.33;;;2.00;;
26474;SDS011;14161;52.270;10.334;2023-07-08T00:13:43;6.15;;;2.20;;
26474;SDS011;14161;52.270;10.334;2023-07-08T00:16:12;2.65;;;1.80;;
26474;SDS011;14161;52.270;10.334;2023-07-08T00:18:40;2.67;;;1.80;;
26474;SDS011;14161;52.270;10.334;2023-07-08T00:21:13;2.10;;;1.67;;
26474;SDS011;14161;52.270;10.334;2023-07-08T00:23:58;2.35;;;1.67;;
26474;SDS011;14161;52.270;10.334;2023-07-08T00:26:30;8.17;;;2.07;;
26474;SDS011;14161;52.270;10.334;2023-07-08T00:28:58;2.60;;;2.13;;
26474;SDS011;14161;52.270;10.334;2023-07-08T00:31:24;4.55;;;1.90;;
26474;SDS011;14161;52.270;10.334;2023-07-08T00:33:50;2.80;;;2.22;;
26474;SDS011;14161;52.270;10.334;2023-07-08T00:36:20;3.05;;;2.13;;
26474;SDS011;14161;52.270;10.334;2023-07-08T00:38:57;1.92;;;1.55;;
26474;SDS011;14161;52.270;10.334;2023-07-08T00:41:27;2.25;;;1.88;;
26474;SDS011;14161;52.270;10.334;2023-07-08T00:43:58;2.33;;;1.70;;
26474;SDS011;14161;52.270;10.334;2023-07-08T00:51:32;3.38;;;1.83;;
26474;SDS011;14161;52.270;10.334;2023-07-08T00:53:58;4.47;;;2.08;;
26474;SDS011;14161;52.270;10.334;2023-07-08T00:56:34;2.42;;;1.70;;
26474;SDS011;14161;52.270;10.334;2023-07-08T00:59:06;2.25;;;1.75;;
26474;SDS011;14161;52.270;10.334;2023-07-08T01:01:35;2.75;;;1.90;;
26474;SDS011;14161;52.270;10.334;2023-07-08T01:04:06;4.03;;;1.95;;
26474;SDS011;14161;52.270;10.334;2023-07-08T01:06:32;4.50;;;1.90;;
26474;SDS011;14161;52.270;10.334;2023-07-08T01:09:01;3.40;;;2.30;;
26474;SDS011;14161;52.270;10.334;2023-07-08T01:11:28;2.72;;;1.90;;
26474;SDS011;14161;52.270;10.334;2023-07-08T01:13:57;3.13;;;1.85;;
26474;SDS011;14161;52.270;10.334;2023-07-08T01:16:26;2.22;;;1.90;;
26474;SDS011;14161;52.270;10.334;2023-07-08T01:18:52;2.63;;;1.80;;
26474;SDS011;14161;52.270;10.334;2023-07-08T01:24:01;2.42;;;1.73;;
26474;SDS011;14161;52.270;10.334;2023-07-08T01:26:29;3.60;;;1.75;;
26474;SDS011;14161;52.270;10.334;2023-07-08T01:28:55;5.55;;;2.22;;
26474;SDS011;14161;52.270;10.334;2023-07-08T01:31:22;2.38;;;2.00;;
26474;SDS011;14161;52.270;10.334;2023-07-08T01:33:48;2.42;;;1.80;;
26474;SDS011;14161;52.270;10.334;2023-07-08T01:36:17;1.90;;;1.63;;
26474;SDS011;14161;52.270;10.334;2023-07-08T01:38:46;3.33;;;1.83;;
26474;SDS011;14161;52.270;10.334;2023-07-08T01:41:14;2.35;;;1.70;;
26474;SDS011;14161;52.270;10.334;2023-07-08T01:43:41;3.97;;;2.08;;
26474;SDS011;14161;52.270;10.334;2023-07-08T01:46:11;3.03;;;1.75;;
26474;SDS011;14161;52.270;10.334;2023-07-08T01:48:40;2.40;;;1.55;;
26474;SDS011;14161;52.270;10.334;2023-07-08T01:51:10;5.68;;;1.98;;
26474;SDS011;14161;52.270;10.334;2023-07-08T01:53:37;2.05;;;1.67;;
26474;SDS011;14161;52.270;10.334;2023-07-08T01:56:05;2.90;;;2.20;;
26474;SDS011;14161;52.270;10.334;2023-07-08T01:58:32;2.75;;;2.00;;
26474;SDS011;14161;52.270;10.334;2023-07-08T02:00:59;4.82;;;2.13;;
26474;SDS011;14161;52.270;10.334;2023-07-08T02:03:25;2.78;;;1.88;;
26474;SDS011;14161;52.270;10.334;2023-07-08T02:05:54;4.82;;;2.35;;
26474;SDS011;14161;52.270;10.334;2023-07-08T02:08:23;4.75;;;1.98;;
26474;SDS011;14161;52.270;10.334;2023-07-08T02:10:57;2.60;;;1.98;;
26474;SDS011;14161;52.270;10.334;2023-07-08T02:13:30;5.95;;;2.15;;
26474;SDS011;14161;52.270;10.334;2023-07-08T02:16:02;3.35;;;2.30;;
26474;SDS011;14161;52.270;10.334;2023-07-08T02:18:29;4.43;;;2.13;;
26474;SDS011;14161;52.270;10.334;2023-07-08T02:20:58;3.45;;;1.88;;
26474;SDS011;14161;52.270;10.334;2023-07-08T02:23:25;3.97;;;2.13;;
26474;SDS011;14161;52.270;10.334;2023-07-08T02:25:57;4.60;;;2.15;;
26474;SDS011;14161;52.270;10.334;2023-07-08T02:28:27;2.67;;;1.98;;
26474;SDS011;14161;52.270;10.334;2023-07-08T02:31:02;2.00;;;1.80;;
26474;SDS011;14161;52.270;10.334;2023-07-08T02:33:29;1.92;;;1.73;;
26474;SDS011;14161;52.270;10.334;2023-07-08T02:35:58;2.80;;;2.10;;
26474;SDS011;14161;52.270;10.334;2023-07-08T02:38:26;3.63;;;2.25;;
26474;SDS011;14161;52.270;10.334;2023-07-08T02:40:56;2.47;;;2.03;;
26474;SDS011;14161;52.270;10.334;2023-07-08T02:43:22;2.60;;;2.00;;
26474;SDS011;14161;52.270;10.334;2023-07-08T02:45:49;3.40;;;2.13;;
26474;SDS011;14161;52.270;10.334;2023-07-08T02:48:22;4.20;;;2.13;;
26474;SDS011;14161;52.270;10.334;2023-07-08T02:50:49;4.70;;;2.22;;
26474;SDS011;14161;52.270;10.334;2023-07-08T02:53:18;3.42;;;2.25;;
26474;SDS011;14161;52.270;10.334;2023-07-08T02:55:44;3.63;;;2.22;;
26474;SDS011;14161;52.270;10.334;2023-07-08T02:58:10;2.92;;;2.30;;
26474;SDS011;14161;52.270;10.334;2023-07-08T03:00:37;3.45;;;2.25;;
26474;SDS011;14161;52.270;10.334;2023-07-08T03:03:03;3.75;;;1.95;;
26474;SDS011;14161;52.270;10.334;2023-07-08T03:05:30;2.75;;;2.30;;
26474;SDS011;14161;52.270;10.334;2023-07-08T03:07:56;2.53;;;2.08;;
26474;SDS011;14161;52.270;10.334;2023-07-08T03:10:29;4.47;;;2.28;;
26474;SDS011;14161;52.270;10.334;2023-07-08T03:12:55;2.75;;;2.40;;
26474;SDS011;14161;52.270;10.334;2023-07-08T03:15:22;4.65;;;2.70;;
26474;SDS011;14161;52.270;10.334;2023-07-08T03:17:49;4.15;;;2.53;;
26474;SDS011;14161;52.270;10.334;2023-07-08T03:20:15;3.10;;;2.38;;
26474;SDS011;14161;52.270;10.334;2023-07-08T03:22:43;2.70;;;2.15;;
26474;SDS011;14161;52.270;10.334;2023-07-08T03:25:15;5.95;;;2.40;;
26474;SDS011;14161;52.270;10.334;2023-07-08T03:27:41;3.40;;;2.47;;
26474;SDS011;14161;52.270;10.334;2023-07-08T03:30:09;3.65;;;2.33;;
26474;SDS011;14161;52.270;10.334;2023-07-08T03:32:35;2.60;;;1.98;;
26474;SDS011;14161;52.270;10.334;2023-07-08T03:35:01;3.80;;;2.60;;
26474;SDS011;14161;52.270;10.334;2023-07-08T03:37:27;3.53;;;2.17;;
26474;SDS011;14161;52.270;10.334;2023-07-08T03:39:53;3.03;;;2.25;;
26474;SDS011;14161;52.270;10.334;2023-07-08T03:42:19;3.00;;;2.28;;
26474;SDS011;14161;52.270;10.334;2023-07-08T03:44:48;5.05;;;2.35;;
26474;SDS011;14161;52.270;10.334;2023-07-08T03:47:16;3.70;;;2.45;;
26474;SDS011;14161;52.270;10.334;2023-07-08T03:49:42;3.33;;;2.25;;
26474;SDS011;14161;52.270;10.334;2023-07-08T03:52:09;2.92;;;2.13;;
26474;SDS011;14161;52.270;10.334;2023-07-08T03:54:43;4.97;;;2.33;;
26474;SDS011;14161;52.270;10.334;2023-07-08T03:57:09;3.53;;;2.45;;
26474;SDS011;14161;52.270;10.334;2023-07-08T03:59:37;3.65;;;2.63;;
26474;SDS011;14161;52.270;10.334;2023-07-08T04:02:11;4.32;;;3.05;;
26474;SDS011;14161;52.270;10.334;2023-07-08T04:04:44;2.70;;;2.40;;
26474;SDS011;14161;52.270;10.334;2023-07-08T04:07:12;5.85;;;2.70;;
26474;SDS011;14161;52.270;10.334;2023-07-08T04:09:38;8.38;;;2.58;;
26474;SDS011;14161;52.270;10.334;2023-07-08T04:12:04;4.85;;;2.55;;
26474;SDS011;14161;52.270;10.334;2023-07-08T04:14:35;3.55;;;2.47;;
26474;SDS011;14161;52.270;10.334;2023-07-08T04:17:02;3.50;;;2.05;;
26474;SDS011;14161;52.270;10.334;2023-07-08T04:19:32;3.35;;;2.30;;
26474;SDS011;14161;52.270;10.334;2023-07-08T04:22:00;3.47;;;2.42;;
26474;SDS011;14161;52.270;10.334;2023-07-08T04:24:35;2.35;;;2.13;;
26474;SDS011;14161;52.270;10.334;2023-07-08T04:27:02;3.97;;;2.47;;
26474;SDS011;14161;52.270;10.334;2023-07-08T04:29:29;3.10;;;2.60;;
26474;SDS011;14161;52.270;10.334;2023-07-08T04:31:59;3.72;;;2.15;;
26474;SDS011;14161;52.270;10.334;2023-07-08T04:34:25;7.47;;;2.17;;
26474;SDS011;14161;52.270;10.334;2023-07-08T04:36:51;5.00;;;2.55;;
26474;SDS011;14161;52.270;10.334;2023-07-08T04:39:18;3.78;;;2.60;;
26474;SDS011;14161;52.270;10.334;2023-07-08T04:41:47;3.40;;;2.35;;
26474;SDS011;14161;52.270;10.334;2023-07-08T04:44:13;2.78;;;2.20;;
26474;SDS011;14161;52.270;10.334;2023-07-08T04:46:45;3.38;;;1.98;;
26474;SDS011;14161;52.270;10.334;2023-07-08T04:49:12;2.55;;;1.92;;
26474;SDS011;14161;52.270;10.334;2023-07-08T04:51:39;5.38;;;2.55;;
26474;SDS011;14161;52.270;10.334;2023-07-08T04:54:05;3.28;;;2.20;;
26474;SDS011;14161;52.270;10.334;2023-07-08T04:56:36;4.05;;;2.15;;
26474;SDS011;14161;52.270;10.334;2023-07-08T04:59:13;3.33;;;2.22;;
26474;SDS011;14161;52.270;10.334;2023-07-08T05:01:40;3.17;;;2.17;;
26474;SDS011;14161;52.270;10.334;2023-07-08T05:04:06;2.53;;;1.95;;
26474;SDS011;14161;52.270;10.334;2023-07-08T05:06:33;4.60;;;2.35;;
26474;SDS011;14161;52.270;10.334;2023-07-08T05:08:59;5.97;;;2.90;;
26474;SDS011;14161;52.270;10.334;2023-07-08T05:11:25;2.95;;;2.50;;
26474;SDS011;14161;52.270;10.334;2023-07-08T05:13:51;2.67;;;2.40;;
26474;SDS011;14161;52.270;10.334;2023-07-08T05:16:16;6.05;;;2.38;;
26474;SDS011;14161;52.270;10.334;2023-07-08T05:18:43;4.30;;;2.20;;
26474;SDS011;14161;52.270;10.334;2023-07-08T05:21:10;2.97;;;2.42;;
26474;SDS011;14161;52.270;10.334;2023-07-08T05:23:35;5.13;;;2.42;;
26474;SDS011;14161;52.270;10.334;2023-07-08T05:26:04;4.68;;;2.40;;
26474;SDS011;14161;52.270;10.334;2023-07-08T05:28:33;3.33;;;2.38;;
26474;SDS011;14161;52.270;10.334;2023-07-08T05:30:59;3.75;;;2.47;;
26474;SDS011;14161;52.270;10.334;2023-07-08T05:33:26;4.75;;;2.53;;
26474;SDS011;14161;52.270;10.334;2023-07-08T05:35:53;3.63;;;2.55;;
26474;SDS011;14161;52.270;10.334;2023-07-08T05:38:19;3.17;;;2.60;;
26474;SDS011;14161;52.270;10.334;2023-07-08T05:40:48;4.30;;;2.70;;
26474;SDS011;14161;52.270;10.334;2023-07-08T05:43:24;3.85;;;2.55;;
26474;SDS011;14161;52.270;10.334;2023-07-08T05:45:56;2.60;;;2.05;;
26474;SDS011;14161;52.270;10.334;2023-07-08T05:48:22;4.10;;;2.35;;
26474;SDS011;14161;52.270;10.334;2023-07-08T05:50:48;5.32;;;2.45;;
26474;SDS011;14161;52.270;10.334;2023-07-08T05:53:14;3.58;;;2.40;;
26474;SDS011;14161;52.270;10.334;2023-07-08T05:55:39;3.72;;;2.67;;
26474;SDS011;14161;52.270;10.334;2023-07-08T05:58:07;3.50;;;2.15;;
26474;SDS011;14161;52.270;10.334;2023-07-08T06:00:34;2.90;;;2.28;;
26474;SDS011;14161;52.270;10.334;2023-07-08T06:02:59;3.58;;;2.30;;
26474;SDS011;14161;52.270;10.334;2023-07-08T06:05:28;3.47;;;2.47;;
26474;SDS011;14161;52.270;10.334;2023-07-08T06:07:54;3.13;;;2.38;;
26474;SDS011;14161;52.270;10.334;2023-07-08T06:10:19;3.22;;;2.42;;
26474;SDS011;14161;52.270;10.334;2023-07-08T06:12:45;5.25;;;2.25;;
26474;SDS011;14161;52.270;10.334;2023-07-08T06:15:10;2.75;;;2.33;;
26474;SDS011;14161;52.270;10.334;2023-07-08T06:17:44;3.05;;;2.38;;
26474;SDS011;14161;52.270;10.334;2023-07-08T06:20:09;4.35;;;2.13;;
26474;SDS011;14161;52.270;10.334;2023-07-08T06:22:35;2.67;;;2.28;;
26474;SDS011;14161;52.270;10.334;2023-07-08T06:25:01;3.38;;;2.47;;
26474;SDS011;14161;52.270;10.334;2023-07-08T06:27:26;2.45;;;2.25;;
26474;SDS011;14161;52.270;10.334;2023-07-08T06:29:53;2.78;;;2.35;;
26474;SDS011;14161;52.270;10.334;2023-07-08T06:32:19;4.68;;;2.67;;
26474;SDS011;14161;52.270;10.334;2023-07-08T06:34:45;2.42;;;2.22;;
26474;SDS011;14161;52.270;10.334;2023-07-08T06:37:11;3.45;;;2.33;;
26474;SDS011;14161;52.270;10.334;2023-07-08T06:39:42;4.05;;;2.63;;
26474;SDS011;14161;52.270;10.334;2023-07-08T06:42:08;6.55;;;2.60;;
26474;SDS011;14161;52.270;10.334;2023-07-08T06:44:38;2.20;;;2.00;;
26474;SDS011;14161;52.270;10.334;2023-07-08T06:47:04;3.38;;;2.15;;
26474;SDS011;14161;52.270;10.334;2023-07-08T06:49:30;3.03;;;2.58;;
26474;SDS011;14161;52.270;10.334;2023-07-08T06:51:56;4.63;;;2.50;;
26474;SDS011;14161;52.270;10.334;2023-07-08T06:54:25;3.28;;;2.90;;
26474;SDS011;14161;52.270;10.334;2023-07-08T06:56:53;3.22;;;2.47;;
26474;SDS011;14161;52.270;10.334;2023-07-08T06:59:18;2.90;;;2.33;;
26474;SDS011;14161;52.270;10.334;2023-07-08T07:01:44;3.17;;;2.60;;
26474;SDS011;14161;52.270;10.334;2023-07-08T07:04:09;3.20;;;2.60;;
26474;SDS011;14161;52.270;10.334;2023-07-08T07:06:35;3.28;;;2.53;;
26474;SDS011;14161;52.270;10.334;2023-07-08T07:09:01;5.53;;;2.63;;
26474;SDS011;14161;52.270;10.334;2023-07-08T07:11:26;4.35;;;2.80;;
26474;SDS011;14161;52.270;10.334;2023-07-08T07:13:53;2.60;;;2.40;;
26474;SDS011;14161;52.270;10.334;2023-07-08T07:16:19;4.85;;;2.83;;
26474;SDS011;14161;52.270;10.334;2023-07-08T07:18:45;4.43;;;2.63;;
26474;SDS011;14161;52.270;10.334;2023-07-08T07:21:11;5.22;;;2.90;;
26474;SDS011;14161;52.270;10.334;2023-07-08T07:23:37;5.07;;;2.40;;
26474;SDS011;14161;52.270;10.334;2023-07-08T07:26:03;3.13;;;2.70;;
26474;SDS011;14161;52.270;10.334;2023-07-08T07:28:28;5.20;;;2.78;;
26474;SDS011;14161;52.270;10.334;2023-07-08T07:30:57;3.00;;;2.33;;
26474;SDS011;14161;52.270;10.334;2023-07-08T07:33:24;3.80;;;2.72;;
26474;SDS011;14161;52.270;10.334;2023-07-08T07:35:54;2.92;;;2.30;;
26474;SDS011;14161;52.270;10.334;2023-07-08T07:38:19;3.20;;;2.80;;
26474;SDS011;14161;52.270;10.334;2023-07-08T07:40:45;2.97;;;2.40;;
26474;SDS011;14161;52.270;10.334;2023-07-08T07:43:22;5.35;;;2.58;;
26474;SDS011;14161;52.270;10.334;2023-07-08T07:46:12;3.33;;;2.75;;
26474;SDS011;14161;52.270;10.334;2023-07-08T07:48:41;3.63;;;2.83;;
26474;SDS011;14161;52.270;10.334;2023-07-08T07:51:15;3.80;;;2.83;;
26474;SDS011;14161;52.270;10.334;2023-07-08T07:53:54;2.67;;;2.45;;
26474;SDS011;14161;52.270;10.334;2023-07-08T07:56:29;3.88;;;2.40;;
26474;SDS011;14161;52.270;10.334;2023-07-08T07:58:58;3.65;;;2.42;;
26474;SDS011;14161;52.270;10.334;2023-07-08T08:01:34;3.45;;;2.40;;
26474;SDS011;14161;52.270;10.334;2023-07-08T08:04:09;2.65;;;2.45;;
26474;SDS011;14161;52.270;10.334;2023-07-08T08:07:06;5.38;;;2.70;;
26474;SDS011;14161;52.270;10.334;2023-07-08T08:12:19;4.55;;;2.45;;
26474;SDS011;14161;52.270;10.334;2023-07-08T08:15:15;3.03;;;2.75;;
26474;SDS011;14161;52.270;10.334;2023-07-08T08:17:41;3.95;;;2.45;;
26474;SDS011;14161;52.270;10.334;2023-07-08T08:20:14;3.30;;;3.00;;
26474;SDS011;14161;52.270;10.334;2023-07-08T08:23:15;4.10;;;2.50;;
26474;SDS011;14161;52.270;10.334;2023-07-08T08:28:17;3.85;;;2.63;;
26474;SDS011;14161;52.270;10.334;2023-07-08T08:30:50;4.20;;;2.65;;
26474;SDS011;14161;52.270;10.334;2023-07-08T08:33:42;3.17;;;2.45;;
26474;SDS011;14161;52.270;10.334;2023-07-08T08:36:33;3.65;;;2.65;;
26474;SDS011;14161;52.270;10.334;2023-07-08T08:39:40;3.22;;;2.30;;
26474;SDS011;14161;52.270;10.334;2023-07-08T08:42:10;3.15;;;2.35;;
26474;SDS011;14161;52.270;10.334;2023-07-08T08:45:04;2.90;;;2.70;;
26474;SDS011;14161;52.270;10.334;2023-07-08T08:47:38;4.38;;;2.90;;
26474;SDS011;14161;52.270;10.334;2023-07-08T08:53:39;4.78;;;2.38;;
26474;SDS011;14161;52.270;10.334;2023-07-08T08:56:34;3.40;;;2.70;;
26474;SDS011;14161;52.270;10.334;2023-07-08T08:59:32;2.80;;;2.50;;
26474;SDS011;14161;52.270;10.334;2023-07-08T09:05:43;2.60;;;2.40;;
26474;SDS011;14161;52.270;10.334;2023-07-08T09:08:13;2.53;;;2.20;;
26474;SDS011;14161;52.270;10.334;2023-07-08T09:10:44;3.67;;;2.65;;
26474;SDS011;14161;52.270;10.334;2023-07-08T09:22:44;3.47;;;2.78;;
26474;SDS011;14161;52.270;10.334;2023-07-08T09:25:24;2.42;;;2.22;;
26474;SDS011;14161;52.270;10.334;2023-07-08T09:28:00;5.18;;;2.88;;
26474;SDS011;14161;52.270;10.334;2023-07-08T09:30:26;2.70;;;2.33;;
26474;SDS011;14161;52.270;10.334;2023-07-08T09:32:54;4.70;;;2.60;;
26474;SDS011;14161;52.270;10.334;2023-07-08T09:35:25;4.97;;;2.47;;
26474;SDS011;14161;52.270;10.334;2023-07-08T09:37:53;3.08;;;2.70;;
26474;SDS011;14161;52.270;10.334;2023-07-08T09:40:28;5.10;;;2.50;;
26474;SDS011;14161;52.270;10.334;2023-07-08T09:45:45;6.05;;;2.67;;
26474;SDS011;14161;52.270;10.334;2023-07-08T09:48:18;5.13;;;2.60;;
26474;SDS011;14161;52.270;10.334;2023-07-08T09:50:51;5.18;;;2.60;;
26474;SDS011;14161;52.270;10.334;2023-07-08T09:53:18;3.00;;;2.67;;
26474;SDS011;14161;52.270;10.334;2023-07-08T09:55:44;3.22;;;2.55;;
26474;SDS011;14161;52.270;10.334;2023-07-08T09:58:11;2.92;;;2.58;;
26474;SDS011;14161;52.270;10.334;2023-07-08T10:00:40;2.88;;;2.38;;
26474;SDS011;14161;52.270;10.334;2023-07-08T10:03:15;4.50;;;2.90;;
26474;SDS011;14161;52.270;10.334;2023-07-08T10:05:45;3.15;;;2.53;;
26474;SDS011;14161;52.270;10.334;2023-07-08T10:08:21;2.72;;;2.20;;
26474;SDS011;14161;52.270;10.334;2023-07-08T10:10:54;4.35;;;2.58;;
26474;SDS011;14161;52.270;10.334;2023-07-08T10:16:15;2.60;;;2.40;;
26474;SDS011;14161;52.270;10.334;2023-07-08T10:18:45;6.85;;;2.85;;
26474;SDS011;14161;52.270;10.334;2023-07-08T10:26:50;4.70;;;2.60;;
26474;SDS011;14161;52.270;10.334;2023-07-08T10:29:33;3.28;;;2.60;;
26474;SDS011;14161;52.270;10.334;2023-07-08T10:32:19;4.40;;;2.42;;
26474;SDS011;14161;52.270;10.334;2023-07-08T10:35:04;2.60;;;2.28;;
26474;SDS011;14161;52.270;10.334;2023-07-08T10:37:37;4.70;;;2.85;;
26474;SDS011;14161;52.270;10.334;2023-07-08T10:40:30;2.83;;;2.50;;
26474;SDS011;14161;52.270;10.334;2023-07-08T10:45:54;4.65;;;2.65;;
26474;SDS011;14161;52.270;10.334;2023-07-08T11:02:35;4.97;;;2.60;;
26474;SDS011;14161;52.270;10.334;2023-07-08T11:05:20;3.22;;;2.50;;
26474;SDS011;14161;52.270;10.334;2023-07-08T11:08:01;3.35;;;2.63;;
26474;SDS011;14161;52.270;10.334;2023-07-08T11:10:34;3.25;;;2.65;;
26474;SDS011;14161;52.270;10.334;2023-07-08T11:13:06;3.08;;;2.20;;
26474;SDS011;14161;52.270;10.334;2023-07-08T11:15:40;2.58;;;2.25;;
26474;SDS011;14161;52.270;10.334;2023-07-08T11:18:13;3.70;;;2.63;;
26474;SDS011;14161;52.270;10.334;2023-07-08T11:23:19;2.70;;;2.50;;
26474;SDS011;14161;52.270;10.334;2023-07-08T11:25:50;3.95;;;2.60;;
26474;SDS011;14161;52.270;10.334;2023-07-08T11:28:19;2.80;;;2.50;;
26474;SDS011;14161;52.270;10.334;2023-07-08T11:30:47;4.60;;;2.65;;
26474;SDS011;14161;52.270;10.334;2023-07-08T11:33:13;4.70;;;2.90;;
26474;SDS011;14161;52.270;10.334;2023-07-08T11:35:46;3.50;;;2.70;;
26474;SDS011;14161;52.270;10.334;2023-07-08T11:38:15;3.40;;;2.80;;
26474;SDS011;14161;52.270;10.334;2023-07-08T11:40:50;2.65;;;2.28;;
26474;SDS011;14161;52.270;10.334;2023-07-08T11:43:17;5.53;;;2.58;;
26474;SDS011;14161;52.270;10.334;2023-07-08T11:45:44;6.32;;;3.00;;
26474;SDS011;14161;52.270;10.334;2023-07-08T11:51:14;4.82;;;3.03;;
26474;SDS011;14161;52.270;10.334;2023-07-08T11:53:49;4.57;;;2.28;;
26474;SDS011;14161;52.270;10.334;2023-07-08T12:03:49;6.28;;;2.97;;
26474;SDS011;14161;52.270;10.334;2023-07-08T12:08:58;3.75;;;2.75;;
26474;SDS011;14161;52.270;10.334;2023-07-08T12:11:30;3.67;;;2.67;;
26474;SDS011;14161;52.270;10.334;2023-07-08T12:13:58;7.05;;;2.80;;
26474;SDS011;14161;52.270;10.334;2023-07-08T12:16:25;4.30;;;2.85;;
26474;SDS011;14161;52.270;10.334;2023-07-08T12:18:52;3.05;;;2.65;;
26474;SDS011;14161;52.270;10.334;2023-07-08T12:21:18;2.97;;;2.60;;
26474;SDS011;14161;52.270;10.334;2023-07-08T12:23:44;4.03;;;2.97;;
26474;SDS011;14161;52.270;10.334;2023-07-08T12:26:11;4.82;;;3.03;;
26474;SDS011;14161;52.270;10.334;2023-07-08T12:28:37;3.88;;;3.42;;
26474;SDS011;14161;52.270;10.334;2023-07-08T12:31:07;3.67;;;2.78;;
26474;SDS011;14161;52.270;10.334;2023-07-08T12:33:43;3.00;;;2.70;;
26474;SDS011;14161;52.270;10.334;2023-07-08T12:36:10;3.30;;;3.00;;
26474;SDS011;14161;52.270;10.334;2023-07-08T12:38:37;5.57;;;2.97;;
26474;SDS011;14161;52.270;10.334;2023-07-08T12:41:11;3.33;;;3.03;;
26474;SDS011;14161;52.270;10.334;2023-07-08T12:43:38;4.75;;;3.45;;
26474;SDS011;14161;52.270;10.334;2023-07-08T12:46:03;4.20;;;3.05;;
26474;SDS011;14161;52.270;10.334;2023-07-08T12:48:33;5.18;;;3.22;;
26474;SDS011;14161;52.270;10.334;2023-07-08T12:50:59;4.70;;;3.10;;
26474;SDS011;14161;52.270;10.334;2023-07-08T12:53:24;5.20;;;3.50;;
26474;SDS011;14161;52.270;10.334;2023-07-08T12:55:50;4.55;;;3.35;;
26474;SDS011;14161;52.270;10.334;2023-07-08T12:58:19;4.25;;;2.75;;
26474;SDS011;14161;52.270;10.334;2023-07-08T13:03:17;4.28;;;3.15;;
26474;SDS011;14161;52.270;10.334;2023-07-08T13:05:49;3.30;;;3.00;;
26474;SDS011;14161;52.270;10.334;2023-07-08T13:08:17;4.03;;;3.22;;
26474;SDS011;14161;52.270;10.334;2023-07-08T13:10:44;4.72;;;2.95;;
26474;SDS011;14161;52.270;10.334;2023-07-08T13:13:18;4.05;;;3.22;;
26474;SDS011;14161;52.270;10.334;2023-07-08T13:15:46;3.53;;;2.90;;
26474;SDS011;14161;52.270;10.334;2023-07-08T13:18:22;3.30;;;2.95;;
26474;SDS011;14161;52.270;10.334;2023-07-08T13:20:53;4.32;;;3.60;;
26474;SDS011;14161;52.270;10.334;2023-07-08T13:23:20;3.90;;;3.50;;
26474;SDS011;14161;52.270;10.334;2023-07-08T13:25:52;4.95;;;3.13;;
26474;SDS011;14161;52.270;10.334;2023-07-08T13:28:19;3.40;;;3.05;;
26474;SDS011;14161;52.270;10.334;2023-07-08T13:30:51;4.20;;;3.00;;
26474;SDS011;14161;52.270;10.334;2023-07-08T13:33:18;3.75;;;3.35;;
26474;SDS011;14161;52.270;10.334;2023-07-08T13:35:44;3.70;;;3.17;;
26474;SDS011;14161;52.270;10.334;2023-07-08T13:38:14;4.03;;;3.28;;
26474;SDS011;14161;52.270;10.334;2023-07-08T13:40:44;3.50;;;2.85;;
26474;SDS011;14161;52.270;10.334;2023-07-08T13:43:11;3.33;;;3.03;;
26474;SDS011;14161;52.270;10.334;2023-07-08T13:45:36;4.50;;;3.00;;
26474;SDS011;14161;52.270;10.334;2023-07-08T13:48:03;3.35;;;3.05;;
26474;SDS011;14161;52.270;10.334;2023-07-08T13:51:20;3.33;;;3.03;;
26474;SDS011;14161;52.270;10.334;2023-07-08T13:56:13;6.63;;;3.10;;
26474;SDS011;14161;52.270;10.334;2023-07-08T13:59:06;4.75;;;3.45;;
26474;SDS011;14161;52.270;10.334;2023-07-08T14:01:34;4.22;;;3.22;;
26474;SDS011;14161;52.270;10.334;2023-07-08T14:04:01;3.42;;;3.10;;
26474;SDS011;14161;52.270;10.334;2023-07-08T14:06:32;3.55;;;3.10;;
26474;SDS011;14161;52.270;10.334;2023-07-08T14:09:12;3.95;;;3.35;;
26474;SDS011;14161;52.270;10.334;2023-07-08T14:11:39;5.90;;;3.20;;
26474;SDS011;14161;52.270;10.334;2023-07-08T14:14:05;3.42;;;3.13;;
26474;SDS011;14161;52.270;10.334;2023-07-08T14:16:31;4.70;;;3.35;;
26474;SDS011;14161;52.270;10.334;2023-07-08T14:18:59;3.25;;;2.95;;
26474;SDS011;14161;52.270;10.334;2023-07-08T14:21:28;3.30;;;2.63;;
26474;SDS011;14161;52.270;10.334;2023-07-08T14:23:55;4.60;;;2.85;;
26474;SDS011;14161;52.270;10.334;2023-07-08T14:26:20;3.20;;;2.90;;
26474;SDS011;14161;52.270;10.334;2023-07-08T14:28:46;3.70;;;3.25;;
26474;SDS011;14161;52.270;10.334;2023-07-08T14:31:12;3.45;;;3.10;;
26474;SDS011;14161;52.270;10.334;2023-07-08T14:33:39;3.42;;;2.90;;
26474;SDS011;14161;52.270;10.334;2023-07-08T14:36:09;6.22;;;3.05;;
26474;SDS011;14161;52.270;10.334;2023-07-08T14:38:34;4.07;;;3.25;;
26474;SDS011;14161;52.270;10.334;2023-07-08T14:41:00;7.63;;;3.40;;
26474;SDS011;14161;52.270;10.334;2023-07-08T14:43:29;6.00;;;3.17;;
26474;SDS011;14161;52.270;10.334;2023-07-08T14:45:57;3.85;;;3.33;;
26474;SDS011;14161;52.270;10.334;2023-07-08T14:48:27;5.25;;;3.15;;
26474;SDS011;14161;52.270;10.334;2023-07-08T14:50:53;3.78;;;3.03;;
26474;SDS011;14161;52.270;10.334;2023-07-08T14:53:19;4.43;;;3.20;;
26474;SDS011;14161;52.270;10.334;2023-07-08T14:55:45;3.03;;;2.72;;
26474;SDS011;14161;52.270;10.334;2023-07-08T14:58:23;6.95;;;3.20;;
26474;SDS011;14161;52.270;10.334;2023-07-08T15:00:53;4.72;;;3.38;;
26474;SDS011;14161;52.270;10.334;2023-07-08T15:03:24;3.33;;;3.03;;
26474;SDS011;14161;52.270;10.334;2023-07-08T15:06:23;7.85;;;3.22;;
26474;SDS011;14161;52.270;10.334;2023-07-08T15:08:49;3.42;;;2.88;;
26474;SDS011;14161;52.270;10.334;2023-07-08T15:11:15;3.72;;;2.97;;
26474;SDS011;14161;52.270;10.334;2023-07-08T15:13:41;3.30;;;3.00;;
26474;SDS011;14161;52.270;10.334;2023-07-08T15:16:12;4.65;;;3.28;;
26474;SDS011;14161;52.270;10.334;2023-07-08T15:18:39;3.20;;;2.90;;
26474;SDS011;14161;52.270;10.334;2023-07-08T15:21:12;3.63;;;2.90;;
26474;SDS011;14161;52.270;10.334;2023-07-08T15:23:38;4.20;;;3.35;;
26474;SDS011;14161;52.270;10.334;2023-07-08T15:26:05;4.53;;;3.40;;
26474;SDS011;14161;52.270;10.334;2023-07-08T15:31:02;4.50;;;3.47;;
26474;SDS011;14161;52.270;10.334;2023-07-08T15:33:28;3.55;;;3.13;;
26474;SDS011;14161;52.270;10.334;2023-07-08T15:35:53;4.50;;;2.83;;
26474;SDS011;14161;52.270;10.334;2023-07-08T15:38:19;3.40;;;3.05;;
26474;SDS011;14161;52.270;10.334;2023-07-08T15:40:44;3.80;;;3.30;;
26474;SDS011;14161;52.270;10.334;2023-07-08T15:43:12;3.22;;;2.92;;
26474;SDS011;14161;52.270;10.334;2023-07-08T15:45:39;4.53;;;3.20;;
26474;SDS011;14161;52.270;10.334;2023-07-08T15:48:08;5.35;;;3.40;;
26474;SDS011;14161;52.270;10.334;2023-07-08T15:50:37;6.28;;;3.50;;
26474;SDS011;14161;52.270;10.334;2023-07-08T15:53:05;5.00;;;3.03;;
26474;SDS011;14161;52.270;10.334;2023-07-08T15:55:38;4.65;;;3.30;;
26474;SDS011;14161;52.270;10.334;2023-07-08T15:58:26;3.20;;;2.90;;
26474;SDS011;14161;52.270;10.334;2023-07-08T16:00:52;3.45;;;3.15;;
26474;SDS011;14161;52.270;10.334;2023-07-08T16:03:22;5.80;;;3.30;;
26474;SDS011;14161;52.270;10.334;2023-07-08T16:05:50;3.78;;;3.10;;
26474;SDS011;14161;52.270;10.334;2023-07-08T16:08:16;3.75;;;3.40;;
26474;SDS011;14161;52.270;10.334;2023-07-08T16:10:41;3.45;;;3.13;;